Terminal Aerodrome Forecast
Issued by NWS Boston, MA

Home | Current Version | Previous Version | Text Only | Print | Product List | Glossary On
Versions: 1 2 3 4 5 6 7 8 9 10 11 12 13 14 15 16 17 18 19 20 21 22 23 24 25 26 27 28 29 30 31 32 33 34 35
222
FTUS41 KBOX 040813 AAA
TAFORH
TAF AMD
KORH 040813Z 0408/0506 05004KT P6SM FEW004 OVC060
     FM041300 07005KT P6SM VCSH OVC025
     FM042100 07007KT P6SM -RA OVC025
     FM042300 06007KT P6SM -RA OVC015=

USA.gov is the U.S. government's official web portal to all federal, state and local government web resources and services.